sensor_id;sensor_type;location;lat;lon;timestamp;P1;durP1;ratioP1;P2;durP2;ratioP2
21743;SDS011;11034;48.556;9.342;2023-05-10T00:00:16;2.15;;;0.70;;
21743;SDS011;11034;48.556;9.342;2023-05-10T00:02:44;0.63;;;0.57;;
21743;SDS011;11034;48.556;9.342;2023-05-10T00:05:13;1.02;;;0.60;;
21743;SDS011;11034;48.556;9.342;2023-05-10T00:07:41;0.50;;;0.50;;
21743;SDS011;11034;48.556;9.342;2023-05-10T00:10:11;0.57;;;0.50;;
21743;SDS011;11034;48.556;9.342;2023-05-10T00:12:41;2.47;;;0.60;;
21743;SDS011;11034;48.556;9.342;2023-05-10T00:15:09;0.57;;;0.57;;
21743;SDS011;11034;48.556;9.342;2023-05-10T00:17:37;0.82;;;0.70;;
21743;SDS011;11034;48.556;9.342;2023-05-10T00:20:05;0.82;;;0.60;;
21743;SDS011;11034;48.556;9.342;2023-05-10T00:22:34;0.77;;;0.60;;
21743;SDS011;11034;48.556;9.342;2023-05-10T00:25:02;0.60;;;0.60;;
21743;SDS011;11034;48.556;9.342;2023-05-10T00:27:33;1.98;;;0.60;;
21743;SDS011;11034;48.556;9.342;2023-05-10T00:30:05;1.85;;;0.70;;
21743;SDS011;11034;48.556;9.342;2023-05-10T00:32:34;0.50;;;0.50;;
21743;SDS011;11034;48.556;9.342;2023-05-10T00:35:02;0.95;;;0.88;;
21743;SDS011;11034;48.556;9.342;2023-05-10T00:37:30;1.35;;;0.80;;
21743;SDS011;11034;48.556;9.342;2023-05-10T00:39:58;3.25;;;0.80;;
21743;SDS011;11034;48.556;9.342;2023-05-10T00:42:26;0.60;;;0.60;;
21743;SDS011;11034;48.556;9.342;2023-05-10T00:44:54;1.42;;;0.75;;
21743;SDS011;11034;48.556;9.342;2023-05-10T00:47:25;1.38;;;0.70;;
21743;SDS011;11034;48.556;9.342;2023-05-10T00:49:53;0.88;;;0.80;;
21743;SDS011;11034;48.556;9.342;2023-05-10T00:52:21;1.33;;;0.90;;
21743;SDS011;11034;48.556;9.342;2023-05-10T00:54:50;1.17;;;0.73;;
21743;SDS011;11034;48.556;9.342;2023-05-10T00:57:19;0.65;;;0.65;;
21743;SDS011;11034;48.556;9.342;2023-05-10T00:59:48;0.77;;;0.73;;
21743;SDS011;11034;48.556;9.342;2023-05-10T01:02:16;1.00;;;0.63;;
21743;SDS011;11034;48.556;9.342;2023-05-10T01:04:46;1.40;;;0.70;;
21743;SDS011;11034;48.556;9.342;2023-05-10T01:07:14;1.00;;;0.80;;
21743;SDS011;11034;48.556;9.342;2023-05-10T01:09:42;1.58;;;0.70;;
21743;SDS011;11034;48.556;9.342;2023-05-10T01:12:10;1.75;;;0.63;;
21743;SDS011;11034;48.556;9.342;2023-05-10T01:14:38;0.63;;;0.63;;
21743;SDS011;11034;48.556;9.342;2023-05-10T01:17:07;0.85;;;0.50;;
21743;SDS011;11034;48.556;9.342;2023-05-10T01:19:38;1.30;;;0.50;;
21743;SDS011;11034;48.556;9.342;2023-05-10T01:22:10;0.60;;;0.60;;
21743;SDS011;11034;48.556;9.342;2023-05-10T01:28:00;5.93;;;1.10;;
21743;SDS011;11034;48.556;9.342;2023-05-10T01:33:48;0.60;;;0.50;;
21743;SDS011;11034;48.556;9.342;2023-05-10T01:36:23;0.47;;;0.47;;
21743;SDS011;11034;48.556;9.342;2023-05-10T01:38:58;1.05;;;0.60;;
21743;SDS011;11034;48.556;9.342;2023-05-10T01:41:35;0.80;;;0.70;;
21743;SDS011;11034;48.556;9.342;2023-05-10T01:44:10;1.60;;;0.68;;
21743;SDS011;11034;48.556;9.342;2023-05-10T01:46:44;0.70;;;0.70;;
21743;SDS011;11034;48.556;9.342;2023-05-10T01:49:18;0.60;;;0.60;;
21743;SDS011;11034;48.556;9.342;2023-05-10T01:51:52;1.10;;;0.70;;
21743;SDS011;11034;48.556;9.342;2023-05-10T01:54:25;0.68;;;0.68;;
21743;SDS011;11034;48.556;9.342;2023-05-10T01:56:55;0.68;;;0.57;;
21743;SDS011;11034;48.556;9.342;2023-05-10T01:59:27;1.95;;;0.50;;
21743;SDS011;11034;48.556;9.342;2023-05-10T02:01:58;1.30;;;0.60;;
21743;SDS011;11034;48.556;9.342;2023-05-10T02:04:29;0.75;;;0.60;;
21743;SDS011;11034;48.556;9.342;2023-05-10T02:06:58;1.27;;;0.47;;
21743;SDS011;11034;48.556;9.342;2023-05-10T02:09:26;0.50;;;0.50;;
21743;SDS011;11034;48.556;9.342;2023-05-10T02:11:57;1.13;;;0.70;;
21743;SDS011;11034;48.556;9.342;2023-05-10T02:14:27;0.47;;;0.47;;
21743;SDS011;11034;48.556;9.342;2023-05-10T02:16:56;1.88;;;0.65;;
21743;SDS011;11034;48.556;9.342;2023-05-10T02:19:25;0.80;;;0.50;;
21743;SDS011;11034;48.556;9.342;2023-05-10T02:21:57;0.77;;;0.47;;
21743;SDS011;11034;48.556;9.342;2023-05-10T02:24:28;2.17;;;0.68;;
21743;SDS011;11034;48.556;9.342;2023-05-10T02:26:56;0.60;;;0.60;;
21743;SDS011;11034;48.556;9.342;2023-05-10T02:29:25;0.93;;;0.77;;
21743;SDS011;11034;48.556;9.342;2023-05-10T02:31:55;0.70;;;0.60;;
21743;SDS011;11034;48.556;9.342;2023-05-10T02:34:26;0.90;;;0.60;;
21743;SDS011;11034;48.556;9.342;2023-05-10T02:36:55;2.00;;;0.60;;
21743;SDS011;11034;48.556;9.342;2023-05-10T02:39:25;0.95;;;0.60;;
21743;SDS011;11034;48.556;9.342;2023-05-10T02:41:55;2.40;;;0.52;;
21743;SDS011;11034;48.556;9.342;2023-05-10T02:44:24;0.80;;;0.70;;
21743;SDS011;11034;48.556;9.342;2023-05-10T02:46:57;0.80;;;0.70;;
21743;SDS011;11034;48.556;9.342;2023-05-10T02:49:26;0.93;;;0.77;;
21743;SDS011;11034;48.556;9.342;2023-05-10T02:51:56;0.60;;;0.50;;
21743;SDS011;11034;48.556;9.342;2023-05-10T02:54:31;1.05;;;0.70;;
21743;SDS011;11034;48.556;9.342;2023-05-10T02:57:03;0.75;;;0.75;;
21743;SDS011;11034;48.556;9.342;2023-05-10T02:59:33;1.13;;;1.02;;
21743;SDS011;11034;48.556;9.342;2023-05-10T03:02:01;2.60;;;1.00;;
21743;SDS011;11034;48.556;9.342;2023-05-10T03:04:30;0.70;;;0.70;;
21743;SDS011;11034;48.556;9.342;2023-05-10T03:06:58;2.33;;;0.95;;
21743;SDS011;11034;48.556;9.342;2023-05-10T03:09:26;0.98;;;0.85;;
21743;SDS011;11034;48.556;9.342;2023-05-10T03:11:56;1.17;;;0.80;;
21743;SDS011;11034;48.556;9.342;2023-05-10T03:14:42;2.20;;;1.10;;
21743;SDS011;11034;48.556;9.342;2023-05-10T03:17:18;2.88;;;0.90;;
21743;SDS011;11034;48.556;9.342;2023-05-10T03:19:52;0.90;;;0.80;;
21743;SDS011;11034;48.556;9.342;2023-05-10T03:22:23;2.67;;;1.00;;
21743;SDS011;11034;48.556;9.342;2023-05-10T03:24:53;2.15;;;0.82;;
21743;SDS011;11034;48.556;9.342;2023-05-10T03:27:26;3.38;;;0.85;;
21743;SDS011;11034;48.556;9.342;2023-05-10T03:29:54;1.73;;;1.10;;
21743;SDS011;11034;48.556;9.342;2023-05-10T03:32:23;3.47;;;1.00;;
21743;SDS011;11034;48.556;9.342;2023-05-10T03:34:53;2.10;;;1.10;;
21743;SDS011;11034;48.556;9.342;2023-05-10T03:37:21;1.67;;;1.10;;
21743;SDS011;11034;48.556;9.342;2023-05-10T03:39:49;1.10;;;1.00;;
21743;SDS011;11034;48.556;9.342;2023-05-10T03:42:17;1.60;;;1.17;;
21743;SDS011;11034;48.556;9.342;2023-05-10T03:44:46;1.20;;;1.10;;
21743;SDS011;11034;48.556;9.342;2023-05-10T03:47:15;1.48;;;1.23;;
21743;SDS011;11034;48.556;9.342;2023-05-10T03:49:43;1.23;;;1.13;;
21743;SDS011;11034;48.556;9.342;2023-05-10T03:52:11;1.20;;;1.10;;
21743;SDS011;11034;48.556;9.342;2023-05-10T03:54:39;1.83;;;1.30;;
21743;SDS011;11034;48.556;9.342;2023-05-10T03:57:07;1.50;;;1.40;;
21743;SDS011;11034;48.556;9.342;2023-05-10T03:59:35;2.53;;;1.42;;
21743;SDS011;11034;48.556;9.342;2023-05-10T04:02:05;1.42;;;1.15;;
21743;SDS011;11034;48.556;9.342;2023-05-10T04:04:33;2.03;;;1.17;;
21743;SDS011;11034;48.556;9.342;2023-05-10T04:07:01;2.47;;;1.25;;
21743;SDS011;11034;48.556;9.342;2023-05-10T04:09:29;1.20;;;1.10;;
21743;SDS011;11034;48.556;9.342;2023-05-10T04:11:58;1.25;;;1.15;;
21743;SDS011;11034;48.556;9.342;2023-05-10T04:14:26;1.30;;;1.20;;
21743;SDS011;11034;48.556;9.342;2023-05-10T04:16:54;1.42;;;1.15;;
21743;SDS011;11034;48.556;9.342;2023-05-10T04:19:24;1.30;;;1.20;;
21743;SDS011;11034;48.556;9.342;2023-05-10T04:21:55;1.73;;;1.17;;
21743;SDS011;11034;48.556;9.342;2023-05-10T04:24:24;1.73;;;1.27;;
21743;SDS011;11034;48.556;9.342;2023-05-10T04:26:52;2.08;;;1.38;;
21743;SDS011;11034;48.556;9.342;2023-05-10T04:29:23;1.30;;;1.15;;
21743;SDS011;11034;48.556;9.342;2023-05-10T04:31:51;2.45;;;1.30;;
21743;SDS011;11034;48.556;9.342;2023-05-10T04:34:20;3.03;;;1.10;;
21743;SDS011;11034;48.556;9.342;2023-05-10T04:36:49;1.30;;;1.20;;
21743;SDS011;11034;48.556;9.342;2023-05-10T04:39:17;1.90;;;1.08;;
21743;SDS011;11034;48.556;9.342;2023-05-10T04:41:45;2.95;;;1.10;;
21743;SDS011;11034;48.556;9.342;2023-05-10T04:44:13;1.40;;;1.15;;
21743;SDS011;11034;48.556;9.342;2023-05-10T04:46:41;1.35;;;1.00;;
21743;SDS011;11034;48.556;9.342;2023-05-10T04:49:09;0.98;;;0.98;;
21743;SDS011;11034;48.556;9.342;2023-05-10T04:51:37;1.42;;;1.00;;
21743;SDS011;11034;48.556;9.342;2023-05-10T04:54:07;1.35;;;1.02;;
21743;SDS011;11034;48.556;9.342;2023-05-10T04:56:35;2.22;;;1.20;;
21743;SDS011;11034;48.556;9.342;2023-05-10T04:59:03;1.40;;;1.10;;
21743;SDS011;11034;48.556;9.342;2023-05-10T05:01:31;2.67;;;1.05;;
21743;SDS011;11034;48.556;9.342;2023-05-10T05:03:59;1.15;;;1.05;;
21743;SDS011;11034;48.556;9.342;2023-05-10T05:06:27;2.28;;;1.00;;
21743;SDS011;11034;48.556;9.342;2023-05-10T05:08:55;1.95;;;1.05;;
21743;SDS011;11034;48.556;9.342;2023-05-10T05:11:24;1.23;;;1.00;;
21743;SDS011;11034;48.556;9.342;2023-05-10T05:13:52;4.97;;;1.08;;
21743;SDS011;11034;48.556;9.342;2023-05-10T05:16:20;4.07;;;1.17;;
21743;SDS011;11034;48.556;9.342;2023-05-10T05:18:48;0.90;;;0.90;;
21743;SDS011;11034;48.556;9.342;2023-05-10T05:21:17;3.20;;;1.30;;
21743;SDS011;11034;48.556;9.342;2023-05-10T05:23:45;6.63;;;1.35;;
21743;SDS011;11034;48.556;9.342;2023-05-10T05:26:14;2.08;;;1.13;;
21743;SDS011;11034;48.556;9.342;2023-05-10T05:28:43;3.40;;;1.20;;
21743;SDS011;11034;48.556;9.342;2023-05-10T05:31:11;1.23;;;1.05;;
21743;SDS011;11034;48.556;9.342;2023-05-10T05:33:40;1.77;;;1.20;;
21743;SDS011;11034;48.556;9.342;2023-05-10T05:36:08;2.60;;;1.10;;
21743;SDS011;11034;48.556;9.342;2023-05-10T05:38:36;2.88;;;1.10;;
21743;SDS011;11034;48.556;9.342;2023-05-10T05:41:04;2.55;;;1.17;;
21743;SDS011;11034;48.556;9.342;2023-05-10T05:43:32;2.75;;;1.20;;
21743;SDS011;11034;48.556;9.342;2023-05-10T05:46:04;1.35;;;1.10;;
21743;SDS011;11034;48.556;9.342;2023-05-10T05:48:32;1.30;;;1.20;;
21743;SDS011;11034;48.556;9.342;2023-05-10T05:51:00;2.50;;;1.10;;
21743;SDS011;11034;48.556;9.342;2023-05-10T05:53:32;4.13;;;1.27;;
21743;SDS011;11034;48.556;9.342;2023-05-10T05:56:01;2.72;;;0.93;;
21743;SDS011;11034;48.556;9.342;2023-05-10T05:58:29;1.45;;;1.08;;
21743;SDS011;11034;48.556;9.342;2023-05-10T06:00:57;3.88;;;1.10;;
21743;SDS011;11034;48.556;9.342;2023-05-10T06:03:27;3.70;;;0.95;;
21743;SDS011;11034;48.556;9.342;2023-05-10T06:05:55;2.13;;;1.20;;
21743;SDS011;11034;48.556;9.342;2023-05-10T06:08:23;1.40;;;1.08;;
21743;SDS011;11034;48.556;9.342;2023-05-10T06:10:51;1.40;;;1.20;;
21743;SDS011;11034;48.556;9.342;2023-05-10T06:13:19;2.35;;;1.48;;
21743;SDS011;11034;48.556;9.342;2023-05-10T06:15:48;1.50;;;1.40;;
21743;SDS011;11034;48.556;9.342;2023-05-10T06:18:16;1.95;;;1.70;;
21743;SDS011;11034;48.556;9.342;2023-05-10T06:20:45;4.93;;;1.40;;
21743;SDS011;11034;48.556;9.342;2023-05-10T06:23:13;2.38;;;1.70;;
21743;SDS011;11034;48.556;9.342;2023-05-10T06:25:41;2.15;;;1.70;;
21743;SDS011;11034;48.556;9.342;2023-05-10T06:28:09;2.75;;;1.30;;
21743;SDS011;11034;48.556;9.342;2023-05-10T06:30:37;1.77;;;1.30;;
21743;SDS011;11034;48.556;9.342;2023-05-10T06:33:05;7.15;;;1.40;;
21743;SDS011;11034;48.556;9.342;2023-05-10T06:35:33;2.00;;;1.33;;
21743;SDS011;11034;48.556;9.342;2023-05-10T06:38:02;2.90;;;1.40;;
21743;SDS011;11034;48.556;9.342;2023-05-10T06:40:30;1.83;;;1.20;;
21743;SDS011;11034;48.556;9.342;2023-05-10T06:42:59;3.67;;;1.20;;
21743;SDS011;11034;48.556;9.342;2023-05-10T06:45:27;2.70;;;1.23;;
21743;SDS011;11034;48.556;9.342;2023-05-10T06:47:55;1.23;;;1.00;;
21743;SDS011;11034;48.556;9.342;2023-05-10T06:50:23;0.90;;;0.77;;
21743;SDS011;11034;48.556;9.342;2023-05-10T06:52:51;1.00;;;0.90;;
21743;SDS011;11034;48.556;9.342;2023-05-10T06:55:21;2.95;;;1.00;;
21743;SDS011;11034;48.556;9.342;2023-05-10T06:57:49;1.70;;;1.02;;
21743;SDS011;11034;48.556;9.342;2023-05-10T07:00:17;1.00;;;0.90;;
21743;SDS011;11034;48.556;9.342;2023-05-10T07:02:46;1.20;;;0.90;;
21743;SDS011;11034;48.556;9.342;2023-05-10T07:05:14;1.65;;;1.30;;
21743;SDS011;11034;48.556;9.342;2023-05-10T07:07:43;1.17;;;1.00;;
21743;SDS011;11034;48.556;9.342;2023-05-10T07:10:11;2.25;;;0.95;;
21743;SDS011;11034;48.556;9.342;2023-05-10T07:12:40;1.90;;;1.00;;
21743;SDS011;11034;48.556;9.342;2023-05-10T07:15:10;3.85;;;1.25;;
21743;SDS011;11034;48.556;9.342;2023-05-10T07:17:40;2.17;;;1.00;;
21743;SDS011;11034;48.556;9.342;2023-05-10T07:20:11;2.85;;;1.00;;
21743;SDS011;11034;48.556;9.342;2023-05-10T07:22:39;1.30;;;1.00;;
21743;SDS011;11034;48.556;9.342;2023-05-10T07:25:11;1.25;;;1.00;;
21743;SDS011;11034;48.556;9.342;2023-05-10T07:27:45;1.88;;;1.13;;
21743;SDS011;11034;48.556;9.342;2023-05-10T07:30:25;1.38;;;1.08;;
21743;SDS011;11034;48.556;9.342;2023-05-10T07:32:56;1.83;;;1.20;;
21743;SDS011;11034;48.556;9.342;2023-05-10T07:35:25;1.50;;;1.05;;
21743;SDS011;11034;48.556;9.342;2023-05-10T07:37:53;1.33;;;1.10;;
21743;SDS011;11034;48.556;9.342;2023-05-10T07:40:21;2.25;;;1.00;;
21743;SDS011;11034;48.556;9.342;2023-05-10T07:42:54;2.47;;;1.55;;
21743;SDS011;11034;48.556;9.342;2023-05-10T07:45:22;1.08;;;0.93;;
21743;SDS011;11034;48.556;9.342;2023-05-10T07:47:52;1.45;;;0.90;;
21743;SDS011;11034;48.556;9.342;2023-05-10T07:50:20;2.13;;;0.80;;
21743;SDS011;11034;48.556;9.342;2023-05-10T07:52:48;0.80;;;0.80;;
21743;SDS011;11034;48.556;9.342;2023-05-10T07:55:17;4.18;;;1.48;;
21743;SDS011;11034;48.556;9.342;2023-05-10T07:57:46;1.58;;;1.00;;
21743;SDS011;11034;48.556;9.342;2023-05-10T08:00:17;1.38;;;1.13;;
21743;SDS011;11034;48.556;9.342;2023-05-10T08:02:47;1.40;;;1.00;;
21743;SDS011;11034;48.556;9.342;2023-05-10T08:05:16;1.05;;;0.80;;
21743;SDS011;11034;48.556;9.342;2023-05-10T08:07:44;0.95;;;0.80;;
21743;SDS011;11034;48.556;9.342;2023-05-10T08:10:12;1.55;;;0.80;;
21743;SDS011;11034;48.556;9.342;2023-05-10T08:12:40;0.98;;;0.65;;
21743;SDS011;11034;48.556;9.342;2023-05-10T08:15:08;1.75;;;0.70;;
21743;SDS011;11034;48.556;9.342;2023-05-10T08:17:38;0.93;;;0.63;;
21743;SDS011;11034;48.556;9.342;2023-05-10T08:20:07;1.00;;;0.90;;
21743;SDS011;11034;48.556;9.342;2023-05-10T08:22:37;0.95;;;0.85;;
21743;SDS011;11034;48.556;9.342;2023-05-10T08:25:05;1.00;;;0.60;;
21743;SDS011;11034;48.556;9.342;2023-05-10T08:27:34;1.83;;;0.80;;
21743;SDS011;11034;48.556;9.342;2023-05-10T08:30:02;3.20;;;0.80;;
21743;SDS011;11034;48.556;9.342;2023-05-10T08:32:30;0.73;;;0.73;;
21743;SDS011;11034;48.556;9.342;2023-05-10T08:35:00;1.23;;;0.93;;
21743;SDS011;11034;48.556;9.342;2023-05-10T08:37:29;0.73;;;0.70;;
21743;SDS011;11034;48.556;9.342;2023-05-10T08:40:04;2.33;;;0.73;;
21743;SDS011;11034;48.556;9.342;2023-05-10T08:42:34;2.88;;;1.23;;
21743;SDS011;11034;48.556;9.342;2023-05-10T08:45:07;1.05;;;0.73;;
21743;SDS011;11034;48.556;9.342;2023-05-10T08:47:36;1.00;;;0.80;;
21743;SDS011;11034;48.556;9.342;2023-05-10T08:50:08;1.70;;;1.10;;
21743;SDS011;11034;48.556;9.342;2023-05-10T08:52:37;2.13;;;0.80;;
21743;SDS011;11034;48.556;9.342;2023-05-10T08:55:07;1.40;;;0.80;;
21743;SDS011;11034;48.556;9.342;2023-05-10T08:57:35;2.03;;;0.80;;
21743;SDS011;11034;48.556;9.342;2023-05-10T09:00:04;1.50;;;0.90;;
21743;SDS011;11034;48.556;9.342;2023-05-10T09:02:36;1.88;;;0.60;;
21743;SDS011;11034;48.556;9.342;2023-05-10T09:05:05;0.95;;;0.80;;
21743;SDS011;11034;48.556;9.342;2023-05-10T09:07:36;2.13;;;0.90;;
21743;SDS011;11034;48.556;9.342;2023-05-10T09:10:05;0.90;;;0.80;;
21743;SDS011;11034;48.556;9.342;2023-05-10T09:12:39;3.38;;;0.73;;
21743;SDS011;11034;48.556;9.342;2023-05-10T09:15:07;0.85;;;0.73;;
21743;SDS011;11034;48.556;9.342;2023-05-10T09:17:37;4.00;;;0.90;;
21743;SDS011;11034;48.556;9.342;2023-05-10T09:20:10;2.25;;;0.85;;
21743;SDS011;11034;48.556;9.342;2023-05-10T09:22:41;0.88;;;0.88;;
21743;SDS011;11034;48.556;9.342;2023-05-10T09:25:10;2.80;;;0.77;;
21743;SDS011;11034;48.556;9.342;2023-05-10T09:27:40;5.00;;;0.80;;
21743;SDS011;11034;48.556;9.342;2023-05-10T09:30:15;1.13;;;0.80;;
21743;SDS011;11034;48.556;9.342;2023-05-10T09:32:45;0.90;;;0.80;;
21743;SDS011;11034;48.556;9.342;2023-05-10T09:35:17;0.88;;;0.63;;
21743;SDS011;11034;48.556;9.342;2023-05-10T09:37:47;0.88;;;0.60;;
21743;SDS011;11034;48.556;9.342;2023-05-10T09:40:17;0.80;;;0.80;;
21743;SDS011;11034;48.556;9.342;2023-05-10T09:42:51;0.60;;;0.60;;
21743;SDS011;11034;48.556;9.342;2023-05-10T09:45:20;2.70;;;0.90;;
21743;SDS011;11034;48.556;9.342;2023-05-10T09:47:51;0.82;;;0.70;;
21743;SDS011;11034;48.556;9.342;2023-05-10T09:50:21;1.55;;;0.60;;
21743;SDS011;11034;48.556;9.342;2023-05-10T09:52:50;1.20;;;0.60;;
21743;SDS011;11034;48.556;9.342;2023-05-10T09:55:19;0.77;;;0.70;;
21743;SDS011;11034;48.556;9.342;2023-05-10T09:57:48;1.67;;;0.90;;
21743;SDS011;11034;48.556;9.342;2023-05-10T10:00:19;1.45;;;0.70;;
21743;SDS011;11034;48.556;9.342;2023-05-10T10:02:48;1.05;;;0.70;;
21743;SDS011;11034;48.556;9.342;2023-05-10T10:05:28;0.70;;;0.57;;
21743;SDS011;11034;48.556;9.342;2023-05-10T10:07:57;0.90;;;0.50;;
21743;SDS011;11034;48.556;9.342;2023-05-10T10:10:26;0.60;;;0.50;;
21743;SDS011;11034;48.556;9.342;2023-05-10T10:12:55;1.15;;;0.80;;
21743;SDS011;11034;48.556;9.342;2023-05-10T10:15:23;0.73;;;0.40;;
21743;SDS011;11034;48.556;9.342;2023-05-10T10:17:52;1.00;;;0.60;;
21743;SDS011;11034;48.556;9.342;2023-05-10T10:20:21;0.73;;;0.50;;
21743;SDS011;11034;48.556;9.342;2023-05-10T10:22:51;0.40;;;0.40;;
21743;SDS011;11034;48.556;9.342;2023-05-10T10:25:20;1.33;;;0.90;;
21743;SDS011;11034;48.556;9.342;2023-05-10T10:27:55;1.55;;;0.80;;
21743;SDS011;11034;48.556;9.342;2023-05-10T10:30:35;1.98;;;0.60;;
21743;SDS011;11034;48.556;9.342;2023-05-10T10:33:24;0.95;;;0.43;;
21743;SDS011;11034;48.556;9.342;2023-05-10T10:36:08;1.10;;;0.70;;
21743;SDS011;11034;48.556;9.342;2023-05-10T10:38:38;1.85;;;0.57;;
21743;SDS011;11034;48.556;9.342;2023-05-10T10:41:29;0.52;;;0.50;;
21743;SDS011;11034;48.556;9.342;2023-05-10T10:46:58;2.90;;;0.60;;
21743;SDS011;11034;48.556;9.342;2023-05-10T10:49:31;0.50;;;0.50;;
21743;SDS011;11034;48.556;9.342;2023-05-10T10:52:13;1.23;;;0.57;;
21743;SDS011;11034;48.556;9.342;2023-05-10T10:54:58;1.08;;;0.50;;
21743;SDS011;11034;48.556;9.342;2023-05-10T10:57:31;0.95;;;0.40;;
21743;SDS011;11034;48.556;9.342;2023-05-10T11:00:19;0.40;;;0.40;;
21743;SDS011;11034;48.556;9.342;2023-05-10T11:02:56;0.93;;;0.50;;
21743;SDS011;11034;48.556;9.342;2023-05-10T11:05:33;0.55;;;0.50;;
21743;SDS011;11034;48.556;9.342;2023-05-10T11:08:09;1.17;;;0.60;;
21743;SDS011;11034;48.556;9.342;2023-05-10T11:10:53;2.53;;;0.57;;
21743;SDS011;11034;48.556;9.342;2023-05-10T11:13:34;0.40;;;0.40;;
21743;SDS011;11034;48.556;9.342;2023-05-10T11:16:13;0.40;;;0.40;;
21743;SDS011;11034;48.556;9.342;2023-05-10T11:18:59;1.38;;;0.70;;
21743;SDS011;11034;48.556;9.342;2023-05-10T11:21:29;1.27;;;0.50;;
21743;SDS011;11034;48.556;9.342;2023-05-10T11:23:59;2.35;;;1.25;;
21743;SDS011;11034;48.556;9.342;2023-05-10T11:26:33;0.70;;;0.63;;
21743;SDS011;11034;48.556;9.342;2023-05-10T11:29:02;0.55;;;0.55;;
21743;SDS011;11034;48.556;9.342;2023-05-10T11:31:31;2.30;;;0.70;;
21743;SDS011;11034;48.556;9.342;2023-05-10T11:34:00;2.90;;;0.52;;
21743;SDS011;11034;48.556;9.342;2023-05-10T11:36:28;1.08;;;0.70;;
21743;SDS011;11034;48.556;9.342;2023-05-10T11:38:59;1.98;;;1.08;;
21743;SDS011;11034;48.556;9.342;2023-05-10T11:41:28;1.50;;;0.77;;
21743;SDS011;11034;48.556;9.342;2023-05-10T11:43:59;1.05;;;0.70;;
21743;SDS011;11034;48.556;9.342;2023-05-10T11:46:27;3.30;;;0.82;;
21743;SDS011;11034;48.556;9.342;2023-05-10T11:48:57;2.63;;;1.00;;
21743;SDS011;11034;48.556;9.342;2023-05-10T11:51:32;1.92;;;0.90;;
21743;SDS011;11034;48.556;9.342;2023-05-10T11:54:04;2.17;;;0.93;;
21743;SDS011;11034;48.556;9.342;2023-05-10T11:56:34;1.50;;;0.75;;
21743;SDS011;11034;48.556;9.342;2023-05-10T11:59:04;1.02;;;0.90;;
21743;SDS011;11034;48.556;9.342;2023-05-10T12:01:32;2.30;;;0.90;;
21743;SDS011;11034;48.556;9.342;2023-05-10T12:04:01;2.28;;;1.00;;
21743;SDS011;11034;48.556;9.342;2023-05-10T12:06:30;1.13;;;0.88;;
21743;SDS011;11034;48.556;9.342;2023-05-10T12:09:01;2.85;;;0.80;;
21743;SDS011;11034;48.556;9.342;2023-05-10T12:11:36;2.28;;;1.00;;
21743;SDS011;11034;48.556;9.342;2023-05-10T12:14:10;3.92;;;1.00;;
21743;SDS011;11034;48.556;9.342;2023-05-10T12:16:38;2.55;;;1.10;;
21743;SDS011;11034;48.556;9.342;2023-05-10T12:19:07;3.42;;;1.05;;
21743;SDS011;11034;48.556;9.342;2023-05-10T12:21:35;3.65;;;0.80;;
21743;SDS011;11034;48.556;9.342;2023-05-10T12:24:05;3.20;;;0.70;;
21743;SDS011;11034;48.556;9.342;2023-05-10T12:26:33;2.80;;;0.98;;
21743;SDS011;11034;48.556;9.342;2023-05-10T12:29:14;5.80;;;1.20;;
21743;SDS011;11034;48.556;9.342;2023-05-10T12:31:49;2.38;;;0.98;;
21743;SDS011;11034;48.556;9.342;2023-05-10T12:34:24;3.28;;;1.20;;
21743;SDS011;11034;48.556;9.342;2023-05-10T12:36:53;2.60;;;1.00;;
21743;SDS011;11034;48.556;9.342;2023-05-10T12:39:21;3.30;;;1.45;;
21743;SDS011;11034;48.556;9.342;2023-05-10T12:41:52;2.17;;;0.95;;
21743;SDS011;11034;48.556;9.342;2023-05-10T12:44:22;4.35;;;1.00;;
21743;SDS011;11034;48.556;9.342;2023-05-10T12:46:50;4.18;;;1.55;;
21743;SDS011;11034;48.556;9.342;2023-05-10T12:49:18;2.85;;;1.02;;
21743;SDS011;11034;48.556;9.342;2023-05-10T12:51:49;3.92;;;0.98;;
21743;SDS011;11034;48.556;9.342;2023-05-10T12:54:18;3.42;;;1.10;;
21743;SDS011;11034;48.556;9.342;2023-05-10T12:56:46;3.38;;;0.90;;
21743;SDS011;11034;48.556;9.342;2023-05-10T12:59:15;3.83;;;1.10;;
21743;SDS011;11034;48.556;9.342;2023-05-10T13:01:48;2.13;;;1.30;;
21743;SDS011;11034;48.556;9.342;2023-05-10T13:04:16;3.85;;;1.00;;
21743;SDS011;11034;48.556;9.342;2023-05-10T13:06:44;2.00;;;1.00;;
21743;SDS011;11034;48.556;9.342;2023-05-10T13:09:12;3.65;;;1.10;;
21743;SDS011;11034;48.556;9.342;2023-05-10T13:11:45;1.30;;;1.10;;
21743;SDS011;11034;48.556;9.342;2023-05-10T13:14:15;3.63;;;1.20;;
21743;SDS011;11034;48.556;9.342;2023-05-10T13:16:45;3.72;;;1.00;;
21743;SDS011;11034;48.556;9.342;2023-05-10T13:19:15;3.40;;;1.00;;
21743;SDS011;11034;48.556;9.342;2023-05-10T13:21:44;2.28;;;1.00;;
21743;SDS011;11034;48.556;9.342;2023-05-10T13:24:13;4.65;;;1.10;;
21743;SDS011;11034;48.556;9.342;2023-05-10T13:26:41;1.20;;;0.98;;
21743;SDS011;11034;48.556;9.342;2023-05-10T13:29:10;2.05;;;1.33;;
21743;SDS011;11034;48.556;9.342;2023-05-10T13:31:38;5.32;;;3.20;;
21743;SDS011;11034;48.556;9.342;2023-05-10T13:34:06;2.53;;;1.50;;
21743;SDS011;11034;48.556;9.342;2023-05-10T13:36:35;2.35;;;0.90;;
21743;SDS011;11034;48.556;9.342;2023-05-10T13:39:03;1.77;;;0.98;;
21743;SDS011;11034;48.556;9.342;2023-05-10T13:41:31;2.75;;;1.02;;
21743;SDS011;11034;48.556;9.342;2023-05-10T13:44:00;3.22;;;1.10;;
21743;SDS011;11034;48.556;9.342;2023-05-10T13:46:28;4.03;;;1.10;;
21743;SDS011;11034;48.556;9.342;2023-05-10T13:48:56;2.30;;;1.10;;
21743;SDS011;11034;48.556;9.342;2023-05-10T13:51:24;2.78;;;1.00;;
21743;SDS011;11034;48.556;9.342;2023-05-10T13:53:54;1.25;;;0.80;;
21743;SDS011;11034;48.556;9.342;2023-05-10T13:56:22;2.63;;;1.00;;
21743;SDS011;11034;48.556;9.342;2023-05-10T13:58:50;2.97;;;1.00;;
21743;SDS011;11034;48.556;9.342;2023-05-10T14:01:21;1.88;;;1.00;;
21743;SDS011;11034;48.556;9.342;2023-05-10T14:03:49;2.58;;;1.08;;
21743;SDS011;11034;48.556;9.342;2023-05-10T14:06:20;2.10;;;0.98;;
21743;SDS011;11034;48.556;9.342;2023-05-10T14:08:48;1.73;;;1.05;;
21743;SDS011;11034;48.556;9.342;2023-05-10T14:11:17;1.88;;;0.98;;
21743;SDS011;11034;48.556;9.342;2023-05-10T14:13:48;5.18;;;0.90;;
21743;SDS011;11034;48.556;9.342;2023-05-10T14:16:16;4.20;;;0.95;;
21743;SDS011;11034;48.556;9.342;2023-05-10T14:18:44;4.20;;;0.90;;
21743;SDS011;11034;48.556;9.342;2023-05-10T14:21:12;2.42;;;1.23;;
21743;SDS011;11034;48.556;9.342;2023-05-10T14:23:41;1.80;;;1.00;;
21743;SDS011;11034;48.556;9.342;2023-05-10T14:26:10;2.17;;;1.10;;
21743;SDS011;11034;48.556;9.342;2023-05-10T14:28:40;3.55;;;1.33;;
21743;SDS011;11034;48.556;9.342;2023-05-10T14:31:08;5.85;;;1.05;;
21743;SDS011;11034;48.556;9.342;2023-05-10T14:33:36;1.00;;;0.90;;
21743;SDS011;11034;48.556;9.342;2023-05-10T14:36:04;1.23;;;0.82;;
21743;SDS011;11034;48.556;9.342;2023-05-10T14:38:33;2.00;;;0.93;;
21743;SDS011;11034;48.556;9.342;2023-05-10T14:41:01;1.67;;;1.00;;
21743;SDS011;11034;48.556;9.342;2023-05-10T14:43:29;2.70;;;1.20;;
21743;SDS011;11034;48.556;9.342;2023-05-10T14:45:59;2.17;;;1.20;;
21743;SDS011;11034;48.556;9.342;2023-05-10T14:48:27;2.20;;;1.10;;
21743;SDS011;11034;48.556;9.342;2023-05-10T14:50:55;2.80;;;0.95;;
21743;SDS011;11034;48.556;9.342;2023-05-10T14:53:23;2.08;;;1.20;;
21743;SDS011;11034;48.556;9.342;2023-05-10T14:55:51;2.30;;;1.00;;
21743;SDS011;11034;48.556;9.342;2023-05-10T14:58:19;3.47;;;1.30;;
21743;SDS011;11034;48.556;9.342;2023-05-10T15:00:47;4.30;;;1.35;;
21743;SDS011;11034;48.556;9.342;2023-05-10T15:03:17;2.45;;;1.05;;
21743;SDS011;11034;48.556;9.342;2023-05-10T15:05:46;4.72;;;1.05;;
21743;SDS011;11034;48.556;9.342;2023-05-10T15:08:17;4.90;;;1.80;;
21743;SDS011;11034;48.556;9.342;2023-05-10T15:10:45;3.30;;;1.20;;
21743;SDS011;11034;48.556;9.342;2023-05-10T15:13:13;5.00;;;1.05;;